Time;durP1;ratioP1;P1;durP2;ratioP2;P2;SDS_P1;SDS_P2;PMS_P1;PMS_P2;Temp;Humidity;BMP_temperature;BMP_pressure;BME280_temperature;BME280_humidity;BME280_pressure;Samples;Min_cycle;Max_cycle;Signal;HPM_P1;HPM_P2
2022/03/08 00:00:32;;;;;;;2.30;2.20;;;;;;;0.92;56.17;101939.59;6027594;23;20389;-69
2022/03/08 00:02:59;;;;;;;2.50;2.40;;;;;;;0.98;55.83;101932.78;6003280;23;20073;-70
2022/03/08 00:05:26;;;;;;;4.68;4.47;;;;;;;0.88;55.82;101914.59;6034166;23;20061;-69
2022/03/08 00:07:54;;;;;;;2.40;2.30;;;;;;;0.86;56.47;101921.47;5998430;23;20262;-70
2022/03/08 00:10:21;;;;;;;4.82;4.63;;;;;;;1.01;56.59;101960.38;6022846;23;20469;-69
2022/03/08 00:12:49;;;;;;;2.60;2.50;;;;;;;0.83;56.55;101924.03;6015422;23;20022;-69
2022/03/08 00:15:21;;;;;;;3.92;3.75;;;;;;;0.99;56.66;101923.28;6043732;23;20090;-70
2022/03/08 00:17:48;;;;;;;;;;;;;;;1.03;57.75;101930.22;5979852;23;20460;-70
2022/03/08 00:20:15;;;;;;;3.80;3.65;;;;;;;1.01;56.96;101934.50;6032668;23;19906;-70
2022/03/08 00:22:42;;;;;;;2.70;2.60;;;;;;;0.85;57.59;101888.75;5998342;23;20011;-70
2022/03/08 00:25:09;;;;;;;2.35;2.25;;;;;;;0.56;57.80;101840.28;6025808;23;20018;-69
2022/03/08 00:27:36;;;;;;;2.50;2.40;;;;;;;0.95;57.09;101898.28;6002872;23;20038;-70
2022/03/08 00:30:06;;;;;;;2.50;2.40;;;;;;;1.08;58.03;101919.91;6027919;23;20377;-69
2022/03/08 00:32:33;;;;;;;3.70;3.58;;;;;;;1.07;58.67;101934.56;5989755;23;20035;-69
2022/03/08 00:34:59;;;;;;;2.30;2.20;;;;;;;0.73;58.47;101871.44;6031874;23;20047;-70
2022/03/08 00:37:26;;;;;;;4.78;4.57;;;;;;;0.93;58.96;101906.03;5997253;23;20038;-70
2022/03/08 00:39:52;;;;;;;2.45;2.35;;;;;;;0.78;58.48;101882.63;6027061;23;20097;-70
2022/03/08 00:42:20;;;;;;;4.20;4.00;;;;;;;0.98;58.60;101918.97;6000527;23;20105;-69
2022/03/08 00:44:46;;;;;;;2.35;2.25;;;;;;;0.82;59.13;101905.06;6030072;23;20011;-70
2022/03/08 00:47:13;;;;;;;3.17;3.05;;;;;;;0.87;59.74;101910.28;5995517;23;20039;-70
2022/03/08 00:49:40;;;;;;;2.50;2.40;;;;;;;0.89;59.99;101903.41;6029597;23;20456;-70
2022/03/08 00:52:07;;;;;;;2.50;2.40;;;;;;;0.87;60.36;101905.13;5997919;23;20037;-70
2022/03/08 00:54:35;;;;;;;2.30;2.20;;;;;;;0.45;59.12;101834.19;6016190;23;20495;-70
2022/03/08 00:57:03;;;;;;;2.38;2.28;;;;;;;0.58;59.08;101848.91;6005269;23;20053;-70
2022/03/08 00:59:29;;;;;;;4.18;3.97;;;;;;;0.07;59.20;101755.56;6032253;23;20082;-69
2022/03/08 01:01:56;;;;;;;2.55;2.45;;;;;;;0.92;58.47;101890.50;5999013;23;20094;-69
2022/03/08 01:04:22;;;;;;;4.45;4.25;;;;;;;0.37;58.08;101796.25;6028082;23;20501;-69
2022/03/08 01:06:49;;;;;;;2.63;2.53;;;;;;;0.92;58.51;101886.22;6002335;23;20035;-69
2022/03/08 01:09:15;;;;;;;4.22;4.05;;;;;;;0.82;58.89;101886.13;6031289;23;20030;-69
2022/03/08 01:11:42;;;;;;;2.40;2.30;;;;;;;0.54;58.52;101836.81;5998618;23;20404;-69
2022/03/08 01:14:10;;;;;;;2.47;2.38;;;;;;;0.24;58.81;101790.97;6032056;23;20037;-69
2022/03/08 01:16:36;;;;;;;2.80;2.70;;;;;;;0.67;58.56;101874.81;5998548;23;20182;-70
2022/03/08 01:19:05;;;;;;;2.70;2.60;;;;;;;0.72;58.74;101882.59;6026786;23;20027;-69
2022/03/08 01:21:34;;;;;;;3.00;2.90;;;;;;;0.68;58.32;101876.56;6008543;23;20016;-69
2022/03/08 01:24:01;;;;;;;2.40;2.30;;;;;;;0.87;56.95;101897.38;6039730;23;20503;-69
2022/03/08 01:26:27;;;;;;;4.50;4.30;;;;;;;0.65;56.49;101852.41;6002317;23;21096;-69
2022/03/08 01:28:53;;;;;;;2.50;2.40;;;;;;;0.55;55.79;101829.09;6033330;23;20566;-69
2022/03/08 01:31:20;;;;;;;3.35;3.25;;;;;;;0.98;56.63;101900.88;6009994;23;20023;-69
2022/03/08 01:33:46;;;;;;;2.28;2.17;;;;;;;0.77;55.65;101876.63;6031709;23;20085;-69
2022/03/08 01:36:13;;;;;;;2.78;2.67;;;;;;;0.77;56.44;101881.78;6000406;23;20050;-68
2022/03/08 01:38:39;;;;;;;2.80;2.70;;;;;;;0.58;55.47;101841.16;6029765;23;20027;-69
2022/03/08 01:41:07;;;;;;;2.53;2.42;;;;;;;0.77;56.18;101880.94;5999883;23;20515;-69
2022/03/08 01:43:33;;;;;;;2.65;2.55;;;;;;;0.80;56.42;101893.84;6024186;23;20400;-69
2022/03/08 01:46:00;;;;;;;3.13;2.92;;;;;;;0.49;56.76;101833.34;6002459;23;20100;-69
2022/03/08 01:48:28;;;;;;;4.38;4.18;;;;;;;0.88;55.59;101891.31;6022394;23;20062;-69
2022/03/08 01:50:56;;;;;;;2.60;2.50;;;;;;;0.52;56.24;101842.00;6001312;23;20022;-70
2022/03/08 01:53:22;;;;;;;3.28;3.17;;;;;;;0.77;56.08;101878.34;6029014;23;20469;-71
2022/03/08 01:55:49;;;;;;;2.47;2.38;;;;;;;0.54;56.58;101860.97;5973803;23;20475;-69
2022/03/08 01:58:22;;;;;;;3.80;3.67;;;;;;;0.25;57.22;101806.47;6014611;23;20541;-69
2022/03/08 02:00:49;;;;;;;2.30;2.20;;;;;;;-0.42;57.87;101709.56;5979082;23;20077;-70
2022/03/08 02:03:15;;;;;;;4.00;3.83;;;;;;;0.65;56.82;101880.84;6025499;23;20051;-69
2022/03/08 02:05:42;;;;;;;2.42;2.33;;;;;;;0.01;57.65;101777.88;6003902;23;20019;-69
2022/03/08 02:08:09;;;;;;;2.40;2.30;;;;;;;0.41;57.35;101847.94;6008091;23;20044;-69
2022/03/08 02:10:35;;;;;;;2.85;2.67;;;;;;;0.27;57.10;101833.16;6001946;23;20027;-72
2022/03/08 02:13:01;;;;;;;2.78;2.67;;;;;;;0.59;57.25;101874.75;6000796;23;20030;-72
2022/03/08 02:15:29;;;;;;;2.70;2.60;;;;;;;0.62;58.23;101873.91;5871551;23;20019;-69
2022/03/08 02:17:57;;;;;;;2.60;2.50;;;;;;;0.60;57.51;101865.28;6029538;23;20003;-71
2022/03/08 02:20:25;;;;;;;4.88;4.68;;;;;;;-0.46;57.86;101686.31;6035333;23;20018;-69
2022/03/08 02:22:52;;;;;;;2.63;2.53;;;;;;;0.56;58.30;101858.38;6004594;23;20055;-69
2022/03/08 02:25:21;;;;;;;4.25;4.05;;;;;;;0.25;58.19;101808.22;6039277;23;20082;-69
2022/03/08 02:27:52;;;;;;;2.30;2.20;;;;;;;0.44;58.72;101847.94;6003310;23;20448;-69
2022/03/08 02:30:21;;;;;;;4.67;4.47;;;;;;;0.33;59.10;101845.28;6029516;23;20562;-70
2022/03/08 02:32:49;;;;;;;2.45;2.35;;;;;;;0.08;59.59;101818.38;6000221;23;20089;-70
2022/03/08 02:35:21;;;;;;;4.03;3.85;;;;;;;-0.14;59.88;101779.47;6039671;23;20085;-69
2022/03/08 02:37:49;;;;;;;;;;;;;;;0.25;60.07;101834.03;6002499;23;20044;-69
2022/03/08 02:40:19;;;;;;;3.80;3.65;;;;;;;0.14;59.44;101814.16;6034840;23;19935;-68
2022/03/08 02:42:45;;;;;;;2.40;2.30;;;;;;;0.28;58.74;101826.28;6006021;23;20046;-71
2022/03/08 02:45:13;;;;;;;2.42;2.33;;;;;;;-0.27;58.88;101736.34;5996381;23;20017;-68
2022/03/08 02:47:40;;;;;;;2.40;2.30;;;;;;;0.30;58.99;101824.59;6014680;23;20086;-69
2022/03/08 02:50:10;;;;;;;2.20;2.10;;;;;;;0.30;58.60;101825.47;6028022;23;20022;-69
2022/03/08 02:52:37;;;;;;;2.70;2.60;;;;;;;-0.03;59.91;101772.69;6003491;23;20019;-69
2022/03/08 02:55:06;;;;;;;2.30;2.20;;;;;;;0.22;59.87;101824.53;6033940;23;20058;-70
2022/03/08 02:57:32;;;;;;;2.85;2.75;;;;;;;0.18;60.30;101828.81;5998548;23;20553;-68
2022/03/08 02:59:59;;;;;;;2.50;2.40;;;;;;;-0.01;60.01;101788.19;6030636;23;20033;-69
2022/03/08 03:02:25;;;;;;;4.47;4.28;;;;;;;0.13;60.15;101825.31;5996595;23;20081;-69
2022/03/08 03:04:52;;;;;;;2.40;2.30;;;;;;;0.10;60.68;101825.28;6029287;23;20006;-69
2022/03/08 03:07:22;;;;;;;4.40;4.20;;;;;;;-0.24;60.62;101770.78;6005817;23;20031;-71
2022/03/08 03:09:50;;;;;;;2.58;2.47;;;;;;;-0.26;60.06;101771.59;6032769;23;20017;-69
2022/03/08 03:12:17;;;;;;;4.25;4.05;;;;;;;-0.21;60.50;101795.75;6025765;23;20027;-68
2022/03/08 03:14:43;;;;;;;2.30;2.20;;;;;;;-0.05;61.37;101826.00;6001985;23;20029;-68
2022/03/08 03:17:09;;;;;;;2.53;2.42;;;;;;;-2.48;60.72;101424.09;6032733;23;20053;-68
2022/03/08 03:19:36;;;;;;;2.40;2.30;;;;;;;-0.21;60.11;101780.25;5994582;23;20499;-71
2022/03/08 03:22:04;;;;;;;2.30;2.20;;;;;;;0.07;60.62;101814.94;6031176;23;20046;-69
2022/03/08 03:24:30;;;;;;;3.50;3.40;;;;;;;0.13;60.58;101816.69;6011534;23;20091;-69
2022/03/08 03:26:56;;;;;;;2.40;2.30;;;;;;;-0.37;60.12;101726.81;6008804;23;20010;-69
2022/03/08 03:29:23;;;;;;;4.35;4.15;;;;;;;-0.08;60.60;101782.13;6002067;23;20082;-69
2022/03/08 03:31:49;;;;;;;2.35;2.25;;;;;;;-0.11;60.89;101787.22;6030691;23;20015;-70
2022/03/08 03:34:16;;;;;;;4.22;4.03;;;;;;;-0.14;60.37;101778.59;6004563;23;20022;-70
2022/03/08 03:36:42;;;;;;;2.30;2.20;;;;;;;-0.07;60.49;101804.47;6031180;23;20679;-69
2022/03/08 03:39:09;;;;;;;2.40;2.30;;;;;;;0.07;60.42;101816.66;5974347;23;20370;-69
2022/03/08 03:41:35;;;;;;;2.20;2.10;;;;;;;-0.21;61.25;101767.38;6026098;23;20533;-69
2022/03/08 03:44:02;;;;;;;2.67;2.58;;;;;;;-0.05;60.56;101791.59;6000723;23;20137;-72
2022/03/08 03:46:29;;;;;;;4.32;4.13;;;;;;;0.10;61.30;101804.66;6025148;23;20027;-69
2022/03/08 03:48:55;;;;;;;2.92;2.83;;;;;;;-0.24;61.00;101733.78;6002681;23;20027;-69
2022/03/08 03:51:22;;;;;;;4.15;3.95;;;;;;;-0.01;59.38;101759.81;6014073;23;20035;-70
2022/03/08 03:53:48;;;;;;;2.90;2.80;;;;;;;0.09;58.90;101753.00;6001986;23;20043;-70
2022/03/08 03:56:14;;;;;;;3.33;3.20;;;;;;;0.37;59.60;101800.56;6016385;23;20499;-70
2022/03/08 03:58:41;;;;;;;2.40;2.30;;;;;;;0.48;59.04;101816.13;5996719;23;20035;-70
2022/03/08 04:01:07;;;;;;;2.10;2.00;;;;;;;0.33;58.72;101778.16;6037844;23;20030;-69
2022/03/08 04:03:34;;;;;;;2.97;2.88;;;;;;;0.26;59.14;101786.69;5994865;23;20023;-69
2022/03/08 04:06:01;;;;;;;2.40;2.30;;;;;;;0.42;59.14;101798.00;6036867;23;20098;-69
2022/03/08 04:08:28;;;;;;;4.07;3.88;;;;;;;0.43;59.22;101797.16;5997703;23;20022;-72
2022/03/08 04:10:55;;;;;;;2.30;2.20;;;;;;;0.29;58.10;101760.91;6008734;23;20116;-70
2022/03/08 04:13:21;;;;;;;4.07;3.88;;;;;;;-0.02;57.93;101709.91;6000578;23;20484;-70
2022/03/08 04:15:47;;;;;;;2.30;2.20;;;;;;;0.45;58.12;101783.41;6013248;23;20506;-70
2022/03/08 04:18:14;;;;;;;3.88;3.65;;;;;;;0.33;58.83;101783.31;5996289;23;20035;-70
2022/03/08 04:20:41;;;;;;;2.30;2.20;;;;;;;0.02;60.08;101746.94;6032775;23;20081;-72
2022/03/08 04:23:07;;;;;;;2.50;2.40;;;;;;;-0.07;59.60;101760.59;6003872;23;20019;-72
2022/03/08 04:25:34;;;;;;;2.30;2.20;;;;;;;-0.30;60.20;101738.88;6040840;23;20106;-72
2022/03/08 04:28:03;;;;;;;2.28;2.17;;;;;;;0.00;59.73;101789.94;6000430;23;20043;-72
2022/03/08 04:30:30;;;;;;;3.20;3.10;;;;;;;-0.31;61.04;101757.81;6023408;23;20039;-72
2022/03/08 04:32:57;;;;;;;2.25;2.15;;;;;;;-0.15;60.98;101790.63;5997972;23;20015;-72
2022/03/08 04:35:23;;;;;;;4.15;3.95;;;;;;;-0.36;61.76;101756.88;6033465;23;20081;-72
2022/03/08 04:37:50;;;;;;;2.20;2.10;;;;;;;-0.16;60.84;101781.19;5998611;23;20023;-70
2022/03/08 04:40:17;;;;;;;2.28;2.17;;;;;;;-0.26;61.30;101762.16;5998885;23;20098;-72
2022/03/08 04:42:44;;;;;;;2.28;2.17;;;;;;;-0.54;60.38;101696.56;6000156;23;20026;-71
2022/03/08 04:45:12;;;;;;;2.22;2.13;;;;;;;-0.08;60.50;101760.59;6030354;23;20025;-72
2022/03/08 04:47:39;;;;;;;2.53;2.42;;;;;;;-0.14;60.98;101769.16;5998332;23;20019;-71
2022/03/08 04:50:08;;;;;;;2.20;2.10;;;;;;;-0.10;60.32;101772.63;6030623;23;20086;-71
2022/03/08 04:52:34;;;;;;;3.30;3.10;;;;;;;-0.14;61.54;101774.31;6002051;23;20067;-71
2022/03/08 04:55:00;;;;;;;1.90;1.90;;;;;;;-0.36;60.63;101754.31;5999808;23;20436;-71
2022/03/08 04:57:27;;;;;;;3.95;3.78;;;;;;;-0.33;60.62;101750.06;6000819;23;20039;-72
2022/03/08 04:59:53;;;;;;;2.20;2.10;;;;;;;-0.25;60.82;101752.72;6023550;23;20527;-71
2022/03/08 05:02:20;;;;;;;4.43;4.22;;;;;;;-0.37;60.67;101745.72;5973669;23;20094;-71
2022/03/08 05:04:47;;;;;;;2.25;2.15;;;;;;;-0.01;60.45;101783.88;5999789;23;20025;-71
2022/03/08 05:07:13;;;;;;;2.33;2.22;;;;;;;0.06;59.30;101784.81;5999781;23;20035;-72
2022/03/08 05:09:39;;;;;;;2.30;2.20;;;;;;;0.01;59.85;101757.25;6034331;23;20603;-71
2022/03/08 05:12:08;;;;;;;2.20;2.10;;;;;;;0.26;59.05;101772.09;5995702;23;20023;-70
2022/03/08 05:14:36;;;;;;;2.30;2.20;;;;;;;0.18;58.94;101756.53;6026128;23;20780;-70
2022/03/08 05:17:03;;;;;;;2.10;2.00;;;;;;;0.18;58.92;101760.81;6001591;23;20029;-69
2022/03/08 05:19:29;;;;;;;3.40;3.30;;;;;;;0.33;58.04;101786.75;6022980;23;20707;-70
2022/03/08 05:21:56;;;;;;;2.50;2.40;;;;;;;-0.09;58.71;101723.59;6002995;23;20074;-71
2022/03/08 05:24:22;;;;;;;4.13;3.92;;;;;;;-0.14;58.48;101730.47;6034300;23;20018;-69
2022/03/08 05:26:49;;;;;;;2.10;2.00;;;;;;;0.06;58.95;101759.03;6030444;23;20015;-73
2022/03/08 05:29:16;;;;;;;3.80;3.65;;;;;;;0.32;57.68;101777.28;5999462;23;20027;-70
2022/03/08 05:31:42;;;;;;;2.20;2.10;;;;;;;0.11;58.88;101762.47;6020025;23;20530;-69
2022/03/08 05:34:09;;;;;;;2.40;2.30;;;;;;;0.10;58.60;101740.13;5992039;23;20318;-69
2022/03/08 05:36:35;;;;;;;2.30;2.20;;;;;;;-0.04;58.39;101710.72;5996887;23;20113;-69
2022/03/08 05:39:02;;;;;;;2.20;2.10;;;;;;;-0.02;58.84;101737.41;5967454;23;21367;-69
2022/03/08 05:41:28;;;;;;;4.07;3.88;;;;;;;-0.17;57.71;101680.56;6000472;23;20015;-70
2022/03/08 05:43:55;;;;;;;2.33;2.22;;;;;;;0.13;58.75;101750.44;5968646;24;20030;-70
2022/03/08 05:46:21;;;;;;;4.30;4.10;;;;;;;-0.07;58.04;101715.88;5996247;23;20042;-70
2022/03/08 05:48:48;;;;;;;2.20;2.10;;;;;;;-0.32;57.91;101670.94;5973962;23;20035;-72
2022/03/08 05:51:14;;;;;;;3.33;3.20;;;;;;;0.31;57.26;101774.69;5995300;23;20016;-70
2022/03/08 05:53:40;;;;;;;2.20;2.10;;;;;;;0.31;57.59;101782.44;5972640;23;20063;-69
2022/03/08 05:56:08;;;;;;;2.40;2.30;;;;;;;0.09;57.16;101740.97;5986806;23;20050;-73
2022/03/08 05:58:35;;;;;;;2.10;2.00;;;;;;;-0.01;58.08;101740.00;5974137;23;20015;-69
2022/03/08 06:01:02;;;;;;;2.10;2.00;;;;;;;0.21;57.08;101773.75;6002497;23;20037;-71
2022/03/08 06:03:29;;;;;;;4.28;4.07;;;;;;;0.18;57.50;101760.81;5961514;23;20061;-71
2022/03/08 06:05:55;;;;;;;2.30;2.20;;;;;;;0.40;57.63;101792.81;5975501;23;20416;-71
2022/03/08 06:08:22;;;;;;;3.83;3.70;;;;;;;0.42;57.10;101801.44;5969855;23;20026;-71
2022/03/08 06:10:49;;;;;;;2.33;2.22;;;;;;;-0.12;56.28;101697.81;5996567;23;20054;-73
2022/03/08 06:13:15;;;;;;;3.63;3.45;;;;;;;0.35;56.47;101777.28;5970344;23;20212;-72
2022/03/08 06:15:42;;;;;;;2.50;2.40;;;;;;;0.53;56.23;101802.38;6001927;23;20024;-72
2022/03/08 06:18:08;;;;;;;2.30;2.20;;;;;;;0.58;56.38;101803.31;5971283;23;20425;-69
2022/03/08 06:20:35;;;;;;;3.30;2.80;;;;;;;0.23;55.82;101742.78;5995715;23;20460;-72
2022/03/08 06:23:01;;;;;;;2.20;2.10;;;;;;;0.54;56.23;101798.06;5968566;23;20047;-71
2022/03/08 06:25:28;;;;;;;3.67;3.58;;;;;;;0.31;56.30;101754.03;6003174;23;20027;-69
2022/03/08 06:27:54;;;;;;;2.30;2.20;;;;;;;0.25;57.10;101754.84;5968179;23;20018;-72
2022/03/08 06:30:21;;;;;;;4.25;4.05;;;;;;;0.14;57.54;101740.97;5993517;23;20024;-72
2022/03/08 06:32:48;;;;;;;2.20;2.10;;;;;;;0.37;57.42;101791.09;5972435;23;20016;-69
2022/03/08 06:35:14;;;;;;;2.63;2.53;;;;;;;0.35;57.63;101774.72;6000382;23;20015;-68
2022/03/08 06:37:40;;;;;;;2.90;2.80;;;;;;;0.40;57.18;101777.31;5995923;23;20082;-69
2022/03/08 06:40:07;;;;;;;2.20;2.10;;;;;;;0.44;56.65;101780.78;5995611;23;20019;-69
2022/03/08 06:42:36;;;;;;;2.50;2.40;;;;;;;0.61;56.38;101820.53;5993612;23;20606;-69
2022/03/08 06:45:05;;;;;;;2.33;2.22;;;;;;;0.65;56.95;101809.38;5999875;23;20038;-69
2022/03/08 06:47:32;;;;;;;3.50;3.40;;;;;;;0.60;57.55;101813.63;5994521;23;20098;-69
2022/03/08 06:49:58;;;;;;;2.55;2.45;;;;;;;0.24;57.30;101741.91;5999241;23;20040;-69
2022/03/08 06:52:25;;;;;;;4.82;4.63;;;;;;;0.63;56.42;101811.06;5968521;23;20023;-69
2022/03/08 06:54:52;;;;;;;2.50;2.40;;;;;;;0.55;57.17;101798.09;5993136;23;20039;-69
2022/03/08 06:57:18;;;;;;;4.03;3.85;;;;;;;0.72;56.66;101800.81;5997619;23;20107;-69
2022/03/08 06:59:45;;;;;;;2.50;2.35;;;;;;;-0.48;56.45;101605.50;5995283;23;20102;-72
2022/03/08 07:02:11;;;;;;;2.67;2.58;;;;;;;0.75;55.88;101792.22;6004378;23;20033;-69
2022/03/08 07:04:37;;;;;;;2.20;2.10;;;;;;;0.61;56.70;101766.28;5998751;23;20023;-70
2022/03/08 07:07:04;;;;;;;2.17;2.08;;;;;;;0.85;56.67;101817.25;5998481;23;20031;-70
2022/03/08 07:09:30;;;;;;;3.35;3.25;;;;;;;0.77;56.30;101796.50;5972668;23;20015;-69
2022/03/08 07:11:57;;;;;;;2.40;2.30;;;;;;;0.58;56.11;101745.59;5992972;23;20375;-70
2022/03/08 07:14:23;;;;;;;4.38;4.18;;;;;;;0.98;56.08;101802.66;5970933;23;20481;-69
2022/03/08 07:16:50;;;;;;;2.60;2.50;;;;;;;0.91;56.16;101790.56;5996291;23;20023;-71
2022/03/08 07:19:17;;;;;;;4.47;4.28;;;;;;;1.11;55.59;101791.53;5992624;23;20028;-69
2022/03/08 07:21:47;;;;;;;2.50;2.40;;;;;;;1.29;54.41;101811.44;5979273;23;20034;-70
2022/03/08 07:24:14;;;;;;;2.47;2.38;;;;;;;1.25;54.00;101777.81;5991999;23;20027;-68
2022/03/08 07:26:41;;;;;;;3.15;3.03;;;;;;;1.48;53.55;101804.59;5984111;23;20495;-69
2022/03/08 07:29:08;;;;;;;2.40;2.30;;;;;;;1.59;53.09;101802.91;5998481;23;20031;-69
2022/03/08 07:31:34;;;;;;;2.50;2.40;;;;;;;1.39;53.02;101750.25;5956337;23;20023;-68
2022/03/08 07:34:01;;;;;;;2.55;2.45;;;;;;;1.82;52.70;101812.44;6011191;23;20164;-70
2022/03/08 07:36:27;;;;;;;4.03;3.85;;;;;;;1.61;52.36;101758.94;6011891;23;20086;-69
2022/03/08 07:38:55;;;;;;;2.50;2.40;;;;;;;1.90;52.30;101794.34;5994995;23;20042;-69
2022/03/08 07:41:21;;;;;;;4.60;4.30;;;;;;;1.80;51.66;101767.56;6027599;23;20038;-69
2022/03/08 07:43:47;;;;;;;2.58;2.47;;;;;;;2.09;51.75;101797.81;5994013;23;20027;-69
2022/03/08 07:46:15;;;;;;;4.47;4.28;;;;;;;2.05;51.57;101773.66;6026135;23;20113;-69
2022/03/08 07:48:42;;;;;;;2.85;2.75;;;;;;;1.88;51.56;101739.97;5972378;23;20090;-68
2022/03/08 07:51:18;;;;;;;4.22;4.03;;;;;;;2.16;51.08;101769.31;6017349;23;20976;-68
2022/03/08 07:53:45;;;;;;;2.60;2.50;;;;;;;2.52;51.38;101816.78;6005514;23;20031;-69
2022/03/08 07:56:11;;;;;;;2.60;2.50;;;;;;;2.22;50.19;101754.66;6009279;23;20011;-68
2022/03/08 07:58:40;;;;;;;2.80;2.70;;;;;;;2.54;50.19;101785.69;6035045;23;20055;-70
2022/03/08 08:01:07;;;;;;;2.55;2.45;;;;;;;1.89;50.48;101668.38;6016636;23;20468;-68
2022/03/08 08:03:35;;;;;;;3.17;3.03;;;;;;;2.86;50.24;101834.03;5994842;23;20435;-69
2022/03/08 08:06:02;;;;;;;2.80;2.70;;;;;;;2.66;49.92;101777.91;6026642;23;20027;-69
2022/03/08 08:08:29;;;;;;;7.72;4.93;;;;;;;2.78;50.10;101771.84;5989990;23;20074;-68
2022/03/08 08:10:55;;;;;;;2.80;2.67;;;;;;;3.02;48.88;101807.19;6027475;23;20109;-70
2022/03/08 08:13:22;;;;;;;4.45;4.25;;;;;;;3.15;48.59;101815.81;5991432;23;20543;-69
2022/03/08 08:15:49;;;;;;;2.80;2.70;;;;;;;2.96;49.17;101781.28;6026872;23;20046;-71
2022/03/08 08:18:18;;;;;;;4.57;4.30;;;;;;;2.96;48.35;101782.16;5985416;23;20015;-69
2022/03/08 08:20:44;;;;;;;2.70;2.60;;;;;;;3.29;49.14;101827.00;6025085;23;20015;-69
2022/03/08 08:23:10;;;;;;;2.80;2.70;;;;;;;3.36;48.92;101826.09;6019095;23;20027;-69
2022/03/08 08:25:37;;;;;;;2.60;2.50;;;;;;;3.34;48.11;101798.44;6040231;23;20560;-69
2022/03/08 08:28:05;;;;;;;2.80;2.70;;;;;;;3.58;47.50;101821.66;5975533;23;20019;-70
2022/03/08 08:30:33;;;;;;;3.50;3.40;;;;;;;3.69;47.48;101816.44;6017807;23;20043;-69
2022/03/08 08:33:00;;;;;;;2.80;2.70;;;;;;;3.86;46.81;101823.25;6022719;23;20086;-69
2022/03/08 08:35:26;;;;;;;4.32;4.13;;;;;;;3.94;47.47;101811.94;5999551;23;20078;-69
2022/03/08 08:37:53;;;;;;;3.08;2.97;;;;;;;3.73;47.33;101789.59;6021085;23;20034;-69
2022/03/08 08:40:19;;;;;;;5.25;4.97;;;;;;;4.08;47.00;101818.78;5994034;23;20054;-70
2022/03/08 08:42:46;;;;;;;2.70;2.60;;;;;;;4.12;46.36;101815.28;6028898;23;20142;-70
2022/03/08 08:45:13;;;;;;;2.85;2.75;;;;;;;4.29;45.08;101812.53;5994181;23;20055;-67
2022/03/08 08:47:40;;;;;;;2.80;2.70;;;;;;;4.37;45.96;101810.75;6024353;23;20083;-67
2022/03/08 08:50:07;;;;;;;2.60;2.50;;;;;;;4.42;45.63;101823.72;6001014;23;20241;-68
2022/03/08 08:52:33;;;;;;;4.05;3.85;;;;;;;4.28;44.71;101775.31;6028354;23;20394;-68
2022/03/08 08:55:00;;;;;;;2.70;2.60;;;;;;;4.52;44.89;101812.34;6005525;23;20124;-68
2022/03/08 08:57:27;;;;;;;4.65;4.45;;;;;;;4.42;45.05;101782.13;6024230;23;20086;-68
2022/03/08 08:59:53;;;;;;;2.60;2.50;;;;;;;4.65;43.84;101800.09;6002274;23;20063;-68
2022/03/08 09:02:20;;;;;;;4.85;4.65;;;;;;;4.57;43.88;101788.06;6025298;23;20230;-67
2022/03/08 09:04:47;;;;;;;3.42;3.33;;;;;;;4.75;43.43;101800.00;5992522;23;20070;-68
2022/03/08 09:07:13;;;;;;;3.03;2.92;;;;;;;4.79;44.73;101785.22;6024351;23;20035;-68
2022/03/08 09:09:39;;;;;;;2.90;2.80;;;;;;;4.70;43.76;101735.91;6002013;23;20025;-67
2022/03/08 09:12:06;;;;;;;3.33;3.10;;;;;;;5.06;44.73;101783.19;6032981;23;20194;-67
2022/03/08 09:14:33;;;;;;;3.00;2.90;;;;;;;5.24;44.65;101776.91;5997605;23;20038;-67
2022/03/08 09:17:00;;;;;;;3.05;2.95;;;;;;;5.25;42.50;101776.00;6025751;23;20049;-68
2022/03/08 09:19:26;;;;;;;4.55;4.35;;;;;;;5.35;41.77;101775.91;5973266;23;20057;-67
2022/03/08 09:21:53;;;;;;;2.85;2.75;;;;;;;5.46;42.18;101767.06;6034364;23;20069;-68
2022/03/08 09:24:19;;;;;;;4.43;4.22;;;;;;;5.24;41.83;101719.66;6029156;23;20049;-68
2022/03/08 09:26:45;;;;;;;3.25;3.15;;;;;;;5.45;42.46;101744.50;6035809;23;20051;-68
2022/03/08 09:29:12;;;;;;;2.97;2.88;;;;;;;4.68;41.16;101608.53;5993536;23;20045;-67
2022/03/08 09:31:38;;;;;;;2.80;2.70;;;;;;;5.86;40.66;101775.16;6034416;23;20082;-68
2022/03/08 09:34:05;;;;;;;2.70;2.60;;;;;;;5.00;40.33;101621.09;5992698;23;20224;-68
2022/03/08 09:36:31;;;;;;;3.40;3.30;;;;;;;5.92;40.26;101771.59;6024982;23;20377;-68
2022/03/08 09:38:58;;;;;;;2.90;2.80;;;;;;;5.77;39.72;101718.88;5997556;23;20017;-68
2022/03/08 09:41:25;;;;;;;4.65;4.45;;;;;;;6.19;39.28;101755.56;6023834;23;20019;-68
2022/03/08 09:43:53;;;;;;;3.10;3.00;;;;;;;6.16;38.60;101737.34;6002892;23;20015;-68
2022/03/08 09:46:20;;;;;;;4.65;4.45;;;;;;;6.28;38.34;101757.16;6020576;23;20396;-67
2022/03/08 09:48:46;;;;;;;3.10;3.00;;;;;;;6.45;38.85;101763.81;5993271;23;20030;-67
2022/03/08 09:51:14;;;;;;;3.35;3.25;;;;;;;6.54;38.84;101756.69;6017101;23;20042;-67
2022/03/08 09:53:43;;;;;;;3.08;2.97;;;;;;;6.32;37.38;101721.47;5989841;23;20436;-67
2022/03/08 09:56:10;;;;;;;3.33;3.22;;;;;;;5.59;36.91;101586.31;6017799;23;20046;-68
2022/03/08 09:58:39;;;;;;;3.10;3.00;;;;;;;6.82;37.03;101750.09;6004193;23;20012;-68
2022/03/08 10:01:06;;;;;;;3.90;3.65;;;;;;;6.88;36.55;101748.22;6018549;23;20029;-68
2022/03/08 10:03:43;;;;;;;4.25;4.05;;;;;;;6.71;37.13;101711.16;5988271;23;20047;-67
2022/03/08 10:06:11;;;;;;;3.45;3.30;;;;;;;5.90;36.67;101563.22;6013353;23;20034;-67
2022/03/08 10:08:38;;;;;;;3.50;3.40;;;;;;;7.15;36.78;101740.69;5993831;23;20007;-68
2022/03/08 10:11:11;;;;;;;3.20;3.10;;;;;;;6.92;35.30;101757.69;6034196;23;20033;-67
2022/03/08 10:13:50;;;;;;;3.22;3.13;;;;;;;7.16;35.86;101729.38;5995541;23;20041;-67
2022/03/08 10:16:23;;;;;;;4.97;4.78;;;;;;;7.10;35.52;101732.13;6021902;23;20402;-68
2022/03/08 10:18:51;;;;;;;3.13;3.03;;;;;;;7.19;36.20;101735.38;6002855;23;20019;-68
2022/03/08 10:21:40;;;;;;;4.78;4.57;;;;;;;7.24;35.37;101731.81;6021507;23;20106;-68
2022/03/08 10:24:16;;;;;;;3.20;3.10;;;;;;;7.48;34.84;101739.09;6007971;23;20098;-68
2022/03/08 10:26:44;;;;;;;3.10;3.00;;;;;;;7.55;34.40;101735.44;5997857;23;20471;-68
2022/03/08 10:29:11;;;;;;;3.45;3.35;;;;;;;7.59;34.33;101699.66;5995228;23;20033;-68
2022/03/08 10:31:37;;;;;;;3.70;3.50;;;;;;;7.62;33.35;101714.41;6006959;23;20019;-68
2022/03/08 10:34:07;;;;;;;3.10;3.00;;;;;;;7.66;34.19;101714.31;5992322;23;20023;-67
2022/03/08 10:36:35;;;;;;;4.50;4.30;;;;;;;7.73;34.00;101709.78;6027785;23;20078;-67
2022/03/08 10:39:12;;;;;;;3.30;3.20;;;;;;;7.73;34.30;101717.63;5997489;23;20465;-67
2022/03/08 10:41:47;;;;;;;3.42;3.22;;;;;;;7.98;34.92;101705.69;6029171;23;20117;-67
2022/03/08 10:44:15;;;;;;;3.63;3.47;;;;;;;7.86;34.37;101682.47;5998210;23;20015;-67
2022/03/08 10:46:41;;;;;;;3.17;3.08;;;;;;;7.96;33.05;101689.19;6028155;23;20089;-67
2022/03/08 10:49:13;;;;;;;3.60;3.40;;;;;;;8.10;32.77;101706.28;5991339;23;20358;-67
2022/03/08 10:51:40;;;;;;;3.60;3.50;;;;;;;7.97;32.68;101708.34;6024980;23;20085;-68
2022/03/08 10:54:11;;;;;;;3.38;3.28;;;;;;;7.83;33.01;101711.28;5995469;23;20040;-68
2022/03/08 10:56:42;;;;;;;3.30;3.20;;;;;;;8.04;33.50;101706.41;6021523;23;20031;-68
2022/03/08 10:59:11;;;;;;;3.30;3.20;;;;;;;7.96;33.38;101654.34;5999914;23;20026;-68
2022/03/08 11:01:41;;;;;;;3.30;3.20;;;;;;;3.98;33.82;100992.97;6020331;23;20824;-70
2022/03/08 11:04:17;;;;;;;3.50;3.40;;;;;;;8.41;33.52;101688.03;5997914;23;20168;-69
2022/03/08 11:06:45;;;;;;;3.17;3.08;;;;;;;8.46;33.11;101688.78;6010915;23;20037;-69
2022/03/08 11:09:12;;;;;;;3.80;3.60;;;;;;;8.41;32.96;101680.19;5983420;23;20405;-69
2022/03/08 11:11:38;;;;;;;3.50;3.40;;;;;;;8.48;32.73;101675.63;6004256;23;20034;-70
2022/03/08 11:14:04;;;;;;;3.50;3.40;;;;;;;8.49;32.44;101674.75;6033322;23;20448;-69
2022/03/08 11:16:32;;;;;;;4.70;4.50;;;;;;;8.29;31.92;101655.19;5994999;23;20633;-69
2022/03/08 11:18:59;;;;;;;3.50;3.40;;;;;;;8.14;32.34;101626.88;6027682;23;20034;-70
2022/03/08 11:21:26;;;;;;;5.35;5.15;;;;;;;8.26;31.51;101662.25;6028400;23;20035;-69
2022/03/08 11:23:54;;;;;;;3.60;3.40;;;;;;;8.33;31.27;101656.81;6008310;23;20008;-69
2022/03/08 11:26:22;;;;;;;5.15;4.95;;;;;;;8.39;31.31;101667.13;6027130;23;20094;-69
2022/03/08 11:28:50;;;;;;;3.30;3.20;;;;;;;8.33;31.71;101628.06;6027783;23;20027;-69
2022/03/08 11:31:21;;;;;;;4.65;4.45;;;;;;;8.55;31.67;101640.56;6018677;23;20190;-69